Terminal Aerodrome Forecast
Issued by NWS

Home | Current Version | Previous Version | Text Only | Print | Product List | Glossary On
Versions: 1 2 3 4 5 6 7 8 9 10 11 12 13 14 15 16 17 18 19 20 21 22 23 24 25 26 27 28 29
000
FTUS41 KBOX 281726
TAFHYA
TAF
KHYA 281726Z 2818/2918 21008KT P6SM BKN070
     FM290100 23006KT 3SM BR SCT008
     FM291000 21007KT 3/4SM BR OVC008
     FM291500 22010KT P6SM SCT008 BKN040=

USA.gov is the U.S. government's official web portal to all federal, state and local government web resources and services.